Time;durP1;ratioP1;P1;durP2;ratioP2;P2;SDS_P1;SDS_P2;PMS_P1;PMS_P2;Temp;Humidity;BMP_temperature;BMP_pressure;BME280_temperature;BME280_humidity;BME280_pressure;Samples;Min_cycle;Max_cycle;Signal;HPM_P1;HPM_P2
2022/12/23 00:00:11;;;;;;;11.60;7.75;;;;;;;;;;4808846;29;20087;-72
2022/12/23 00:02:38;;;;;;;11.00;7.75;;;;;;;;;;4815437;29;20050;-72
2022/12/23 00:05:06;;;;;;;12.10;8.15;;;;;;;;;;4788769;29;20062;-72
2022/12/23 00:07:33;;;;;;;10.90;8.13;;;;;;;;;;4805679;29;20108;-72
2022/12/23 00:10:01;;;;;;;12.23;8.13;;;;;;;;;;4822741;29;20162;-73
2022/12/23 00:15:15;;;;;;;11.43;8.27;;;;;;;;;;4798335;29;20570;-73
2022/12/23 00:17:43;;;;;;;10.35;7.50;;;;;;;;;;4803482;29;20061;-73
2022/12/23 00:20:12;;;;;;;8.40;7.25;;;;;;;;;;4816635;29;20050;-73
2022/12/23 00:25:44;;;;;;;8.68;6.97;;;;;;;;;;4808269;29;20061;-73
2022/12/23 00:28:14;;;;;;;9.20;6.30;;;;;;;;;;4860714;23;20083;-81
2022/12/23 00:30:47;;;;;;;8.10;7.22;;;;;;;;;;4859748;29;20076;-82
2022/12/23 00:33:15;;;;;;;9.85;7.22;;;;;;;;;;4877967;29;20045;-83
2022/12/23 00:35:42;;;;;;;11.05;7.05;;;;;;;;;;4879282;29;20152;-82
2022/12/23 00:38:10;;;;;;;7.53;5.90;;;;;;;;;;4862745;29;20064;-82
2022/12/23 00:43:24;;;;;;;10.88;7.60;;;;;;;;;;4871920;29;20098;-82
2022/12/23 00:45:52;;;;;;;11.95;7.25;;;;;;;;;;4851363;29;20021;-81
2022/12/23 00:51:05;;;;;;;11.73;7.70;;;;;;;;;;4874630;29;20060;-82
2022/12/23 00:53:32;;;;;;;11.95;8.25;;;;;;;;;;4864883;29;20061;-82
2022/12/23 00:56:00;;;;;;;9.05;7.50;;;;;;;;;;4865495;29;20517;-83
2022/12/23 00:58:27;;;;;;;13.05;8.10;;;;;;;;;;4861999;29;20046;-82
2022/12/23 01:06:29;;;;;;;11.13;6.85;;;;;;;;;;4858045;29;20053;-82
2022/12/23 01:08:57;;;;;;;12.93;7.00;;;;;;;;;;4859719;29;20542;-82
2022/12/23 01:11:24;;;;;;;14.60;8.90;;;;;;;;;;4861462;29;20128;-82
2022/12/23 01:13:51;;;;;;;13.90;7.45;;;;;;;;;;4872468;29;20407;-82
2022/12/23 01:16:19;;;;;;;12.68;7.45;;;;;;;;;;4855692;29;20073;-81
2022/12/23 01:18:46;;;;;;;18.90;6.95;;;;;;;;;;4858809;29;20065;-82
2022/12/23 01:21:13;;;;;;;9.25;5.75;;;;;;;;;;4854393;29;20502;-81
2022/12/23 01:23:41;;;;;;;9.98;6.30;;;;;;;;;;4858583;29;20052;-82
2022/12/23 01:26:08;;;;;;;7.35;5.43;;;;;;;;;;4859253;29;20098;-82
2022/12/23 01:28:36;;;;;;;15.52;7.07;;;;;;;;;;4859132;29;20080;-82
2022/12/23 01:31:05;;;;;;;10.63;6.25;;;;;;;;;;4858151;29;20053;-83
2022/12/23 01:33:32;;;;;;;16.25;7.40;;;;;;;;;;4851868;29;20038;-82
2022/12/23 01:36:00;;;;;;;9.98;6.25;;;;;;;;;;4856291;29;20132;-82
2022/12/23 01:38:28;;;;;;;10.63;6.00;;;;;;;;;;4863838;29;20121;-82
2022/12/23 01:40:56;;;;;;;8.93;6.60;;;;;;;;;;4864349;29;20060;-82
2022/12/23 01:43:23;;;;;;;11.32;6.32;;;;;;;;;;4857117;29;20504;-82
2022/12/23 01:45:52;;;;;;;10.27;6.90;;;;;;;;;;4863009;29;20038;-82
2022/12/23 01:48:22;;;;;;;6.40;4.47;;;;;;;;;;4857289;29;20324;-82
2022/12/23 01:50:58;;;;;;;9.07;5.95;;;;;;;;;;4859093;29;20056;-83
2022/12/23 01:53:26;;;;;;;9.30;6.32;;;;;;;;;;4859505;29;20045;-82
2022/12/23 01:55:56;;;;;;;8.80;5.47;;;;;;;;;;4861886;29;20042;-82
2022/12/23 01:58:30;;;;;;;6.50;4.47;;;;;;;;;;4859383;29;20431;-82
2022/12/23 02:03:44;;;;;;;6.53;4.88;;;;;;;;;;4868101;29;20045;-83
2022/12/23 02:09:18;;;;;;;8.18;5.28;;;;;;;;;;4854329;29;20140;-81
2022/12/23 02:11:51;;;;;;;5.88;4.55;;;;;;;;;;4858739;29;20105;-82
2022/12/23 02:17:35;;;;;;;7.55;5.07;;;;;;;;;;4848548;29;20061;-82
2022/12/23 02:20:15;;;;;;;9.82;5.60;;;;;;;;;;4866715;29;20061;-82
2022/12/23 02:23:00;;;;;;;6.88;5.38;;;;;;;;;;4865706;29;20109;-81
2022/12/23 02:25:30;;;;;;;7.22;5.55;;;;;;;;;;4861397;29;20046;-82
2022/12/23 02:28:07;;;;;;;6.35;5.18;;;;;;;;;;4866362;29;20054;-84
2022/12/23 02:30:34;;;;;;;8.75;5.50;;;;;;;;;;4865247;29;20049;-82
2022/12/23 02:33:24;;;;;;;8.00;5.93;;;;;;;;;;4850758;29;20049;-83
2022/12/23 02:35:51;;;;;;;6.13;5.03;;;;;;;;;;4861554;29;20439;-83
2022/12/23 02:38:54;;;;;;;5.88;4.93;;;;;;;;;;4864806;29;20113;-82
2022/12/23 02:41:48;;;;;;;7.40;4.20;;;;;;;;;;4803080;29;20619;-83
2022/12/23 02:44:15;;;;;;;10.07;5.95;;;;;;;;;;4857545;29;20098;-83
2022/12/23 02:46:47;;;;;;;8.27;5.15;;;;;;;;;;4858614;29;20670;-83
2022/12/23 02:49:27;;;;;;;6.93;4.60;;;;;;;;;;4857928;29;20152;-82
2022/12/23 02:51:58;;;;;;;10.20;5.82;;;;;;;;;;4858048;29;20133;-82
2022/12/23 02:54:30;;;;;;;10.23;4.95;;;;;;;;;;4860802;29;20078;-83
2022/12/23 02:56:57;;;;;;;;;;;;;;;;;;4858929;29;20113;-84
2022/12/23 02:59:30;;;;;;;7.55;4.57;;;;;;;;;;4859863;29;19924;-82
2022/12/23 03:01:58;;;;;;;4.07;3.67;;;;;;;;;;4858283;29;20049;-83
2022/12/23 03:04:25;;;;;;;5.57;3.95;;;;;;;;;;4858386;29;20074;-82
2022/12/23 03:06:54;;;;;;;5.65;4.63;;;;;;;;;;4855455;29;20073;-83
2022/12/23 03:09:25;;;;;;;8.10;5.43;;;;;;;;;;4858778;29;20045;-84
2022/12/23 03:12:03;;;;;;;6.72;4.95;;;;;;;;;;4859694;29;20057;-83
2022/12/23 03:14:54;;;;;;;12.10;5.95;;;;;;;;;;4859736;29;20052;-83
2022/12/23 03:17:36;;;;;;;6.95;4.82;;;;;;;;;;4854973;29;20061;-82
2022/12/23 03:20:14;;;;;;;7.03;4.45;;;;;;;;;;4858693;29;20053;-82
2022/12/23 03:23:01;;;;;;;10.68;5.85;;;;;;;;;;4858589;29;20050;-82
2022/12/23 03:25:35;;;;;;;5.20;4.70;;;;;;;;;;4859166;29;20126;-81
2022/12/23 03:28:05;;;;;;;9.23;5.60;;;;;;;;;;4864913;29;20061;-83
2022/12/23 03:30:33;;;;;;;10.80;5.55;;;;;;;;;;4877552;29;20052;-83
2022/12/23 03:33:01;;;;;;;5.30;4.40;;;;;;;;;;4871023;29;20476;-83
2022/12/23 03:35:30;;;;;;;7.03;4.88;;;;;;;;;;4844801;29;20605;-83
2022/12/23 03:37:58;;;;;;;3.85;3.42;;;;;;;;;;4848715;29;20124;-83
2022/12/23 03:40:27;;;;;;;5.25;4.50;;;;;;;;;;4858187;29;20084;-82
2022/12/23 03:42:57;;;;;;;6.82;4.18;;;;;;;;;;4869950;29;20101;-83
2022/12/23 03:45:28;;;;;;;6.80;4.78;;;;;;;;;;4859989;29;20128;-84
2022/12/23 03:48:06;;;;;;;;;;;;;;;;;;4869711;29;20102;-83
2022/12/23 03:50:34;;;;;;;5.30;3.83;;;;;;;;;;4871676;29;19924;-83
2022/12/23 03:53:08;;;;;;;4.50;3.30;;;;;;;;;;4869022;29;20080;-83
2022/12/23 03:55:38;;;;;;;4.55;3.70;;;;;;;;;;4865956;29;20075;-83
2022/12/23 03:58:24;;;;;;;3.70;3.40;;;;;;;;;;4867048;29;20083;-84
2022/12/23 04:00:58;;;;;;;7.18;4.30;;;;;;;;;;4859037;29;20049;-82
2022/12/23 04:03:44;;;;;;;4.05;3.60;;;;;;;;;;4865244;29;20132;-83
2022/12/23 04:06:14;;;;;;;5.00;3.95;;;;;;;;;;4863319;29;20427;-82
2022/12/23 04:08:43;;;;;;;5.78;4.22;;;;;;;;;;4863017;29;20056;-82
2022/12/23 04:11:10;;;;;;;5.65;5.15;;;;;;;;;;4864469;29;20507;-83
2022/12/23 04:13:38;;;;;;;19.30;18.00;;;;;;;;;;4854021;29;20049;-83
2022/12/23 04:16:05;;;;;;;5.18;4.60;;;;;;;;;;4864652;29;20061;-83
2022/12/23 04:18:33;;;;;;;4.95;3.97;;;;;;;;;;4865296;29;20049;-83
2022/12/23 04:21:00;;;;;;;6.90;4.13;;;;;;;;;;4862952;29;20422;-82
2022/12/23 04:23:27;;;;;;;5.80;4.22;;;;;;;;;;4864607;29;20056;-83
2022/12/23 04:25:55;;;;;;;6.45;3.95;;;;;;;;;;4863563;29;20468;-82
2022/12/23 04:28:22;;;;;;;5.05;3.75;;;;;;;;;;4863445;29;20049;-84
2022/12/23 04:30:49;;;;;;;4.05;3.53;;;;;;;;;;4861614;29;20045;-82
2022/12/23 04:33:17;;;;;;;6.68;4.60;;;;;;;;;;4864427;29;20520;-82
2022/12/23 04:35:44;;;;;;;4.22;3.45;;;;;;;;;;4861103;29;20315;-82
2022/12/23 04:38:11;;;;;;;3.38;3.00;;;;;;;;;;4861368;29;20049;-82
2022/12/23 04:40:38;;;;;;;3.22;2.92;;;;;;;;;;4851938;29;20526;-83
2022/12/23 04:43:06;;;;;;;2.63;2.42;;;;;;;;;;4859272;29;20562;-82
2022/12/23 04:45:33;;;;;;;5.70;4.72;;;;;;;;;;4858448;29;20074;-82
2022/12/23 04:48:00;;;;;;;10.60;5.15;;;;;;;;;;4857553;29;20053;-83
2022/12/23 04:50:27;;;;;;;3.38;3.13;;;;;;;;;;4859424;29;20073;-83
2022/12/23 04:52:55;;;;;;;4.57;4.10;;;;;;;;;;4862658;29;20121;-82
2022/12/23 04:55:22;;;;;;;4.55;4.13;;;;;;;;;;4859616;29;20050;-82
2022/12/23 04:57:49;;;;;;;4.40;4.00;;;;;;;;;;4842219;29;20479;-83
2022/12/23 05:00:17;;;;;;;4.80;3.78;;;;;;;;;;4858480;29;20049;-83
2022/12/23 05:02:44;;;;;;;6.38;4.45;;;;;;;;;;4857963;29;20049;-83
2022/12/23 05:05:11;;;;;;;6.03;4.75;;;;;;;;;;4858896;29;20052;-82
2022/12/23 05:07:39;;;;;;;6.28;4.22;;;;;;;;;;4856040;29;20055;-83
2022/12/23 05:10:06;;;;;;;7.05;4.45;;;;;;;;;;4861183;29;20049;-83
2022/12/23 05:12:34;;;;;;;5.85;4.32;;;;;;;;;;4856753;29;20145;-83
2022/12/23 05:15:01;;;;;;;6.20;4.57;;;;;;;;;;4858980;29;20065;-83
2022/12/23 05:17:28;;;;;;;5.85;4.28;;;;;;;;;;4859971;29;20116;-83
2022/12/23 05:19:55;;;;;;;7.35;4.80;;;;;;;;;;4862682;29;20125;-82
2022/12/23 05:22:23;;;;;;;7.28;4.30;;;;;;;;;;4868864;29;20053;-81
2022/12/23 05:24:50;;;;;;;5.93;4.18;;;;;;;;;;4865738;29;20057;-83
2022/12/23 05:27:17;;;;;;;5.50;3.75;;;;;;;;;;4858446;29;20042;-83
2022/12/23 05:29:44;;;;;;;7.60;4.43;;;;;;;;;;4845915;29;20041;-82
2022/12/23 05:32:12;;;;;;;9.07;4.85;;;;;;;;;;4861293;29;20053;-83
2022/12/23 05:34:39;;;;;;;7.53;4.30;;;;;;;;;;4861521;29;20052;-84
2022/12/23 05:37:06;;;;;;;4.22;3.35;;;;;;;;;;4859181;29;20060;-84
2022/12/23 05:39:34;;;;;;;4.15;3.65;;;;;;;;;;4861545;29;20041;-83
2022/12/23 05:42:01;;;;;;;6.55;4.05;;;;;;;;;;4860257;29;20084;-84
2022/12/23 05:44:28;;;;;;;6.15;4.28;;;;;;;;;;4860263;29;20238;-84
2022/12/23 05:46:55;;;;;;;3.90;3.47;;;;;;;;;;4853085;29;20054;-84
2022/12/23 05:49:24;;;;;;;3.53;3.22;;;;;;;;;;4843860;29;20113;-84
2022/12/23 05:51:51;;;;;;;6.55;3.75;;;;;;;;;;4858897;29;20149;-83
2022/12/23 05:54:18;;;;;;;5.40;3.67;;;;;;;;;;4862061;29;20087;-83
2022/12/23 05:56:46;;;;;;;5.93;3.63;;;;;;;;;;4859198;29;20093;-83
2022/12/23 05:59:14;;;;;;;11.68;4.05;;;;;;;;;;4860074;29;20504;-87
2022/12/23 06:01:41;;;;;;;2.80;2.60;;;;;;;;;;4861489;29;20068;-83
2022/12/23 06:04:09;;;;;;;3.85;3.35;;;;;;;;;;4864221;29;20512;-83
2022/12/23 06:06:36;;;;;;;4.57;3.40;;;;;;;;;;4857228;29;20046;-83
2022/12/23 06:09:03;;;;;;;5.65;4.15;;;;;;;;;;4858301;29;20081;-84
2022/12/23 06:11:30;;;;;;;3.92;3.53;;;;;;;;;;4860491;29;20042;-83
2022/12/23 06:13:58;;;;;;;4.80;3.92;;;;;;;;;;4851445;29;20060;-83
2022/12/23 06:16:25;;;;;;;7.22;3.95;;;;;;;;;;4857103;29;20068;-83
2022/12/23 06:18:56;;;;;;;3.53;3.30;;;;;;;;;;4852593;29;20077;-84
2022/12/23 06:21:24;;;;;;;5.45;3.95;;;;;;;;;;4864748;29;20057;-85
2022/12/23 06:23:52;;;;;;;4.47;4.05;;;;;;;;;;4865240;29;20128;-84
2022/12/23 06:26:19;;;;;;;5.05;3.92;;;;;;;;;;4858752;29;20085;-83
2022/12/23 06:28:46;;;;;;;6.32;5.70;;;;;;;;;;4856635;29;20054;-83
2022/12/23 06:31:13;;;;;;;7.40;6.43;;;;;;;;;;4865918;29;20420;-83
2022/12/23 06:33:41;;;;;;;8.90;7.20;;;;;;;;;;4859003;29;20149;-83
2022/12/23 06:36:08;;;;;;;5.55;4.95;;;;;;;;;;4855975;29;20037;-83
2022/12/23 06:38:39;;;;;;;12.02;6.97;;;;;;;;;;4857963;29;20050;-85
2022/12/23 06:41:06;;;;;;;9.70;7.82;;;;;;;;;;4864307;29;20503;-83
2022/12/23 06:43:34;;;;;;;6.20;5.60;;;;;;;;;;4857965;29;20331;-84
2022/12/23 06:46:01;;;;;;;7.55;6.05;;;;;;;;;;4860843;29;20045;-83
2022/12/23 06:48:28;;;;;;;12.02;8.27;;;;;;;;;;4868760;29;20559;-83
2022/12/23 06:50:56;;;;;;;6.18;5.57;;;;;;;;;;4863780;29;20518;-84
2022/12/23 06:53:23;;;;;;;7.10;5.97;;;;;;;;;;4864723;29;20488;-82
2022/12/23 06:55:58;;;;;;;7.57;5.65;;;;;;;;;;4869896;29;20112;-83
2022/12/23 06:58:26;;;;;;;5.30;4.00;;;;;;;;;;4867479;29;20056;-80
2022/12/23 07:00:53;;;;;;;4.90;4.10;;;;;;;;;;4866629;29;20058;-83
2022/12/23 07:03:21;;;;;;;4.78;3.95;;;;;;;;;;4860203;29;20119;-82
2022/12/23 07:05:49;;;;;;;4.80;4.22;;;;;;;;;;4863336;29;20045;-82
2022/12/23 07:08:17;;;;;;;5.78;4.03;;;;;;;;;;4862992;29;20041;-84
2022/12/23 07:10:44;;;;;;;6.10;4.13;;;;;;;;;;4870313;29;20057;-82
2022/12/23 07:13:14;;;;;;;6.68;4.25;;;;;;;;;;4860709;29;20049;-84
2022/12/23 07:15:43;;;;;;;;;;;;;;;;;;4859771;29;20500;-83
2022/12/23 07:18:11;;;;;;;5.43;3.88;;;;;;;;;;4858001;29;19924;-83
2022/12/23 07:20:40;;;;;;;4.75;3.78;;;;;;;;;;4850336;29;20052;-84
2022/12/23 07:23:10;;;;;;;12.43;7.30;;;;;;;;;;4856938;29;20053;-84
2022/12/23 07:25:38;;;;;;;3.45;3.15;;;;;;;;;;4859202;29;20048;-86
2022/12/23 07:28:05;;;;;;;4.75;3.58;;;;;;;;;;4854023;29;20050;-84
2022/12/23 07:30:32;;;;;;;5.15;4.65;;;;;;;;;;4857151;29;20053;-83
2022/12/23 07:33:02;;;;;;;6.30;4.55;;;;;;;;;;4859049;29;20058;-85
2022/12/23 07:35:29;;;;;;;6.90;4.72;;;;;;;;;;4844861;29;20369;-83
2022/12/23 07:37:57;;;;;;;5.75;4.18;;;;;;;;;;4859546;29;20049;-86
2022/12/23 07:40:25;;;;;;;4.57;3.70;;;;;;;;;;4858679;29;20072;-84
2022/12/23 07:42:56;;;;;;;4.00;3.55;;;;;;;;;;4857142;29;20045;-86
2022/12/23 07:45:24;;;;;;;5.47;4.50;;;;;;;;;;4859727;29;20052;-87
2022/12/23 07:47:53;;;;;;;4.65;4.20;;;;;;;;;;4863526;29;20061;-89
2022/12/23 07:50:21;;;;;;;5.95;4.75;;;;;;;;;;4861849;29;20060;-86
2022/12/23 07:52:48;;;;;;;6.00;4.53;;;;;;;;;;4860669;29;20049;-86
2022/12/23 07:55:18;;;;;;;6.57;5.18;;;;;;;;;;4861422;29;20086;-87
2022/12/23 07:57:49;;;;;;;7.82;5.15;;;;;;;;;;4853864;29;20605;-86
2022/12/23 08:00:18;;;;;;;9.88;5.78;;;;;;;;;;4860910;29;20121;-86
2022/12/23 08:02:46;;;;;;;7.60;5.18;;;;;;;;;;4865728;29;20534;-87
2022/12/23 08:05:17;;;;;;;7.38;4.88;;;;;;;;;;4861689;29;20045;-86
2022/12/23 08:07:45;;;;;;;7.57;5.55;;;;;;;;;;4860561;29;20048;-86
2022/12/23 08:10:24;;;;;;;41.30;22.90;;;;;;;;;;4861799;29;20089;-85
2022/12/23 08:12:51;;;;;;;9.95;6.60;;;;;;;;;;4847064;29;20042;-87
2022/12/23 08:15:18;;;;;;;11.30;6.50;;;;;;;;;;4864789;29;20112;-82
2022/12/23 08:17:46;;;;;;;5.47;4.97;;;;;;;;;;4866618;29;20049;-82
2022/12/23 08:20:13;;;;;;;12.52;7.10;;;;;;;;;;4861991;29;20046;-82
2022/12/23 08:22:40;;;;;;;6.38;4.43;;;;;;;;;;4863961;29;20038;-83
2022/12/23 08:25:08;;;;;;;6.07;4.40;;;;;;;;;;4848228;29;20057;-82
2022/12/23 08:27:44;;;;;;;8.82;7.80;;;;;;;;;;4866347;29;20038;-82
2022/12/23 08:30:12;;;;;;;12.07;9.82;;;;;;;;;;4870947;29;20045;-82
2022/12/23 08:32:42;;;;;;;19.85;13.27;;;;;;;;;;4851077;29;20594;-82
2022/12/23 08:35:09;;;;;;;13.15;9.70;;;;;;;;;;4861741;29;20063;-83
2022/12/23 08:37:36;;;;;;;9.40;7.40;;;;;;;;;;4857147;29;20061;-84
2022/12/23 08:40:04;;;;;;;16.05;8.85;;;;;;;;;;4858014;29;20053;-86
2022/12/23 08:42:31;;;;;;;10.60;8.40;;;;;;;;;;4845609;29;20072;-84
2022/12/23 08:44:59;;;;;;;11.65;7.72;;;;;;;;;;4868267;29;20526;-82
2022/12/23 08:47:27;;;;;;;9.48;5.82;;;;;;;;;;4860443;29;20058;-82
2022/12/23 08:49:54;;;;;;;7.05;5.72;;;;;;;;;;4861012;29;20044;-80
2022/12/23 08:52:21;;;;;;;4.80;4.30;;;;;;;;;;4863189;29;20511;-84
2022/12/23 08:54:49;;;;;;;7.43;5.22;;;;;;;;;;4864621;29;20045;-84
2022/12/23 08:57:16;;;;;;;4.97;4.30;;;;;;;;;;4861732;29;20144;-83
2022/12/23 08:59:50;;;;;;;6.88;4.85;;;;;;;;;;4845954;29;20084;-84
2022/12/23 09:02:21;;;;;;;5.40;4.82;;;;;;;;;;4859310;29;20148;-84
2022/12/23 09:04:48;;;;;;;5.93;5.18;;;;;;;;;;4863606;29;20057;-84
2022/12/23 09:07:16;;;;;;;6.50;4.53;;;;;;;;;;4865188;29;20058;-83
2022/12/23 09:09:44;;;;;;;7.35;5.45;;;;;;;;;;4844197;29;20042;-84
2022/12/23 09:12:11;;;;;;;5.10;4.05;;;;;;;;;;4851096;29;20544;-85
2022/12/23 09:14:39;;;;;;;7.30;5.10;;;;;;;;;;4858152;29;20073;-84
2022/12/23 09:17:06;;;;;;;4.88;4.38;;;;;;;;;;4856992;29;20469;-84
2022/12/23 09:19:34;;;;;;;9.15;6.20;;;;;;;;;;4869841;29;20042;-83
2022/12/23 09:22:01;;;;;;;10.15;7.07;;;;;;;;;;4865033;29;20057;-85
2022/12/23 09:24:31;;;;;;;8.68;7.03;;;;;;;;;;4864457;29;20055;-83
2022/12/23 09:26:58;;;;;;;7.90;6.70;;;;;;;;;;4859336;29;20053;-82
2022/12/23 09:29:26;;;;;;;9.48;6.70;;;;;;;;;;4863153;29;20041;-83
2022/12/23 09:31:53;;;;;;;18.63;13.70;;;;;;;;;;4863444;29;20042;-83
2022/12/23 09:34:21;;;;;;;26.00;23.63;;;;;;;;;;4860958;29;20114;-84
2022/12/23 09:36:49;;;;;;;5.40;4.78;;;;;;;;;;4860612;29;20049;-84
2022/12/23 09:39:21;;;;;;;7.68;5.85;;;;;;;;;;4861414;29;20081;-82
2022/12/23 09:42:21;;;;;;;9.63;6.30;;;;;;;;;;4860572;29;20080;-84
2022/12/23 09:44:52;;;;;;;7.82;6.57;;;;;;;;;;4847612;29;20233;-83
2022/12/23 09:47:21;;;;;;;7.80;6.45;;;;;;;;;;4861379;29;20098;-84
2022/12/23 09:49:51;;;;;;;11.45;6.85;;;;;;;;;;4863077;29;20042;-83
2022/12/23 09:52:27;;;;;;;11.00;7.45;;;;;;;;;;4866281;29;20538;-83
2022/12/23 09:54:54;;;;;;;11.65;9.02;;;;;;;;;;4872078;29;20057;-84
2022/12/23 09:57:46;;;;;;;12.88;8.20;;;;;;;;;;4872126;29;20091;-83
2022/12/23 10:00:18;;;;;;;10.10;7.90;;;;;;;;;;4894984;29;20103;-84
2022/12/23 10:02:59;;;;;;;19.65;13.18;;;;;;;;;;4859298;29;20073;-88
2022/12/23 10:05:46;;;;;;;13.23;9.27;;;;;;;;;;4860492;29;20057;-83
2022/12/23 10:08:31;;;;;;;18.05;12.05;;;;;;;;;;4862185;29;20038;-84
2022/12/23 10:11:04;;;;;;;13.15;10.55;;;;;;;;;;4840027;29;20053;-84
2022/12/23 10:13:35;;;;;;;12.82;9.30;;;;;;;;;;4857835;29;20080;-83
2022/12/23 10:16:08;;;;;;;14.60;10.48;;;;;;;;;;4854730;29;20050;-84
2022/12/23 10:18:48;;;;;;;16.13;12.38;;;;;;;;;;4859720;29;20070;-83
2022/12/23 10:21:34;;;;;;;11.13;8.35;;;;;;;;;;4862247;29;20516;-83
2022/12/23 10:24:05;;;;;;;13.55;9.95;;;;;;;;;;4856757;29;20475;-83
2022/12/23 10:26:52;;;;;;;10.60;9.20;;;;;;;;;;4865355;29;20043;-83
2022/12/23 10:29:24;;;;;;;18.42;13.65;;;;;;;;;;4856353;29;20060;-84
2022/12/23 10:31:51;;;;;;;;;;;;;;;;;;4861748;29;20105;-82
2022/12/23 10:34:25;;;;;;;32.17;25.83;;;;;;;;;;4859717;29;19928;-83
2022/12/23 10:36:57;;;;;;;32.47;20.85;;;;;;;;;;4852187;29;20090;-83
2022/12/23 10:39:36;;;;;;;20.23;13.93;;;;;;;;;;4872432;29;20160;-83
2022/12/23 10:42:25;;;;;;;35.55;21.17;;;;;;;;;;4860488;29;20049;-84
2022/12/23 10:44:58;;;;;;;27.00;19.35;;;;;;;;;;4843657;29;20068;-84
2022/12/23 10:47:36;;;;;;;22.20;13.70;;;;;;;;;;4861208;29;20396;-83
2022/12/23 10:50:29;;;;;;;12.15;9.80;;;;;;;;;;4843325;29;20416;-83
2022/12/23 10:53:00;;;;;;;15.68;10.43;;;;;;;;;;4860440;29;20046;-82
2022/12/23 10:55:37;;;;;;;13.20;9.57;;;;;;;;;;4830981;29;20049;-83
2022/12/23 10:58:13;;;;;;;12.52;9.93;;;;;;;;;;4844688;29;20691;-83
2022/12/23 11:00:53;;;;;;;16.75;13.57;;;;;;;;;;4858507;29;20052;-85
2022/12/23 11:03:27;;;;;;;24.42;15.68;;;;;;;;;;4863141;29;20475;-83
2022/12/23 11:05:57;;;;;;;14.20;10.82;;;;;;;;;;4858749;29;20068;-84
2022/12/23 11:08:31;;;;;;;10.35;9.15;;;;;;;;;;4859584;29;20073;-83
2022/12/23 11:11:00;;;;;;;12.27;10.07;;;;;;;;;;4855910;29;20140;-84
2022/12/23 11:13:36;;;;;;;13.23;9.50;;;;;;;;;;4843632;29;20114;-83
2022/12/23 11:16:13;;;;;;;15.93;12.30;;;;;;;;;;4860538;29;20053;-84
2022/12/23 11:18:53;;;;;;;17.77;11.25;;;;;;;;;;4863147;29;20056;-85
2022/12/23 11:21:25;;;;;;;11.40;8.18;;;;;;;;;;4859716;29;20534;-86
2022/12/23 11:24:05;;;;;;;15.07;9.75;;;;;;;;;;4872268;29;20037;-83
2022/12/23 11:26:36;;;;;;;12.20;9.48;;;;;;;;;;4874876;29;20056;-83
2022/12/23 11:29:10;;;;;;;12.82;10.50;;;;;;;;;;4874062;29;20042;-83
2022/12/23 11:31:38;;;;;;;15.40;10.68;;;;;;;;;;4863017;29;20052;-84
2022/12/23 11:34:06;;;;;;;14.30;11.25;;;;;;;;;;4861970;29;20061;-84
2022/12/23 11:36:34;;;;;;;15.25;11.90;;;;;;;;;;4861664;29;20042;-85
2022/12/23 11:39:24;;;;;;;15.70;12.70;;;;;;;;;;4862687;29;20564;-86
2022/12/23 11:41:52;;;;;;;13.38;11.30;;;;;;;;;;4862334;29;20060;-83
2022/12/23 11:44:21;;;;;;;17.83;12.00;;;;;;;;;;4862461;29;20112;-83
2022/12/23 11:46:52;;;;;;;16.40;13.13;;;;;;;;;;4860715;29;20045;-84
2022/12/23 11:49:25;;;;;;;19.05;15.32;;;;;;;;;;4847779;29;20052;-84
2022/12/23 11:52:05;;;;;;;18.42;14.05;;;;;;;;;;4849774;29;20056;-85
2022/12/23 11:54:34;;;;;;;13.70;10.43;;;;;;;;;;4858031;29;20129;-83
2022/12/23 11:57:14;;;;;;;14.73;11.75;;;;;;;;;;4826690;29;20053;-83
2022/12/23 11:59:49;;;;;;;18.63;13.40;;;;;;;;;;4836307;29;20049;-82
2022/12/23 12:02:21;;;;;;;22.35;14.20;;;;;;;;;;4855276;29;20065;-84
2022/12/23 12:04:55;;;;;;;19.05;14.63;;;;;;;;;;4873222;29;20084;-83
2022/12/23 12:07:23;;;;;;;18.33;13.55;;;;;;;;;;4860132;29;20364;-83
2022/12/23 12:09:50;;;;;;;18.55;13.65;;;;;;;;;;4859738;29;20054;-82
2022/12/23 12:12:19;;;;;;;18.38;13.38;;;;;;;;;;4854306;29;20064;-84
2022/12/23 12:14:53;;;;;;;15.75;12.85;;;;;;;;;;4842289;29;20508;-85
2022/12/23 12:17:31;;;;;;;29.08;19.08;;;;;;;;;;4861531;29;20074;-82
2022/12/23 12:20:05;;;;;;;27.20;16.85;;;;;;;;;;4860984;29;20511;-85
2022/12/23 12:22:35;;;;;;;22.20;15.57;;;;;;;;;;4855472;29;20124;-84
2022/12/23 12:25:15;;;;;;;23.00;15.30;;;;;;;;;;4857159;29;20454;-84
2022/12/23 12:27:45;;;;;;;;;;;;;;;;;;4856280;29;20409;-85
2022/12/23 12:30:17;;;;;;;25.67;18.13;;;;;;;;;;4899783;24;20283;-90
2022/12/23 12:32:50;;;;;;;29.48;20.88;;;;;;;;;;4876464;29;20530;-89
2022/12/23 12:35:18;;;;;;;47.88;27.83;;;;;;;;;;4877714;29;20052;-88
2022/12/23 12:37:56;;;;;;;42.15;25.77;;;;;;;;;;4870569;29;20047;-89
2022/12/23 12:40:24;;;;;;;37.78;23.23;;;;;;;;;;4849672;29;20222;-88
2022/12/23 12:43:06;;;;;;;25.85;16.52;;;;;;;;;;4890435;29;20037;-87
2022/12/23 12:46:05;;;;;;;33.08;19.13;;;;;;;;;;4857598;29;20506;-87
2022/12/23 12:49:12;;;;;;;42.10;22.40;;;;;;;;;;4850064;29;20056;-88
2022/12/23 12:52:22;;;;;;;27.20;19.20;;;;;;;;;;4851251;29;20047;-88
2022/12/23 12:55:49;;;;;;;;;;;;;;;;;;;;;
2022/12/23 13:02:58;;;;;;;199.73;28.05;;;;;;;;;;4862988;29;20518;-88
2022/12/23 13:05:32;;;;;;;77.05;17.70;;;;;;;;;;4864230;29;20052;-88
2022/12/23 13:08:27;;;;;;;127.47;20.20;;;;;;;;;;4878153;29;20044;-87
2022/12/23 13:11:15;;;;;;;41.53;23.80;;;;;;;;;;4879080;29;20045;-88
2022/12/23 13:13:52;;;;;;;59.55;32.47;;;;;;;;;;4896414;29;20511;-87
2022/12/23 13:16:19;;;;;;;62.17;33.53;;;;;;;;;;4847009;29;20052;-88
2022/12/23 13:19:07;;;;;;;48.35;29.90;;;;;;;;;;4879120;29;20059;-88
2022/12/23 13:21:37;;;;;;;40.03;25.88;;;;;;;;;;4895318;29;20057;-87
2022/12/23 13:24:14;;;;;;;35.22;23.00;;;;;;;;;;4883671;29;20048;-91
2022/12/23 13:27:04;;;;;;;49.83;29.35;;;;;;;;;;4874294;29;20048;-90
2022/12/23 13:29:32;;;;;;;43.65;30.30;;;;;;;;;;4883882;29;20422;-90
2022/12/23 13:32:05;;;;;;;55.92;30.88;;;;;;;;;;4867398;29;20052;-90
2022/12/23 13:34:42;;;;;;;48.45;30.17;;;;;;;;;;4865826;29;20368;-88
2022/12/23 13:37:11;;;;;;;53.47;27.17;;;;;;;;;;4850945;29;20064;-88
2022/12/23 13:39:57;;;;;;;48.83;27.33;;;;;;;;;;4880859;29;20048;-89
2022/12/23 13:42:27;;;;;;;38.58;24.05;;;;;;;;;;4866759;29;20094;-90
2022/12/23 13:44:56;;;;;;;58.25;28.50;;;;;;;;;;4849893;29;20486;-91
2022/12/23 13:47:28;;;;;;;41.58;23.98;;;;;;;;;;4851714;29;20053;-90
2022/12/23 13:50:05;;;;;;;205.88;38.75;;;;;;;;;;4850976;29;20056;-89
2022/12/23 13:52:47;;;;;;;32.80;11.30;;;;;;;;;;4851333;29;20083;-89
2022/12/23 13:55:35;;;;;;;28.48;15.75;;;;;;;;;;4868264;29;20059;-92
2022/12/23 13:58:08;;;;;;;26.42;13.90;;;;;;;;;;4881692;29;20052;-92
2022/12/23 14:00:36;;;;;;;188.10;23.30;;;;;;;;;;4850806;29;20586;-90
2022/12/23 14:03:17;;;;;;;69.85;34.97;;;;;;;;;;4846427;29;20064;-90
2022/12/23 14:05:49;;;;;;;177.30;34.25;;;;;;;;;;4851115;29;20075;-89
2022/12/23 14:08:17;;;;;;;31.17;18.08;;;;;;;;;;4863481;29;20060;-90
2022/12/23 14:10:54;;;;;;;44.40;25.08;;;;;;;;;;4851845;29;20541;-89
2022/12/23 14:13:31;;;;;;;42.90;21.83;;;;;;;;;;4849472;29;20073;-91
2022/12/23 14:16:03;;;;;;;69.70;29.77;;;;;;;;;;4865152;29;20301;-91
2022/12/23 14:18:41;;;;;;;51.03;27.00;;;;;;;;;;4867214;29;20060;-90
2022/12/23 14:21:22;;;;;;;57.33;28.45;;;;;;;;;;4849477;29;20059;-89
2022/12/23 14:24:08;;;;;;;53.60;30.83;;;;;;;;;;4838188;29;20083;-89
2022/12/23 14:26:48;;;;;;;84.07;28.50;;;;;;;;;;4881524;29;20406;-88
2022/12/23 14:29:37;;;;;;;38.45;15.55;;;;;;;;;;4878795;29;20055;-88
2022/12/23 14:32:17;;;;;;;21.95;12.77;;;;;;;;;;4861674;29;20060;-91
2022/12/23 14:35:03;;;;;;;38.50;21.00;;;;;;;;;;4873746;29;20041;-89
2022/12/23 14:37:37;;;;;;;38.80;18.77;;;;;;;;;;4866276;29;20049;-91
2022/12/23 14:40:23;;;;;;;53.05;20.33;;;;;;;;;;4881774;29;20041;-89
2022/12/23 14:43:11;;;;;;;33.05;17.63;;;;;;;;;;4861487;29;20053;-89
2022/12/23 14:45:42;;;;;;;41.50;20.80;;;;;;;;;;4873465;29;20052;-89
2022/12/23 14:48:30;;;;;;;58.70;27.48;;;;;;;;;;4885476;29;20422;-89
2022/12/23 14:51:03;;;;;;;73.00;30.65;;;;;;;;;;4870901;29;20120;-94
2022/12/23 14:53:30;;;;;;;;;;;;;;;;;;4902523;29;20033;-93
2022/12/23 14:56:11;;;;;;;79.75;19.02;;;;;;;;;;4888100;29;19917;-92
2022/12/23 14:58:49;;;;;;;45.47;15.23;;;;;;;;;;4913918;29;20032;-91
2022/12/23 15:01:23;;;;;;;32.13;15.50;;;;;;;;;;4882375;29;20036;-92
2022/12/23 15:03:52;;;;;;;30.00;12.10;;;;;;;;;;4869542;29;20053;-93
2022/12/23 15:07:00;;;;;;;29.38;15.45;;;;;;;;;;4871948;29;20032;-92
2022/12/23 15:09:34;;;;;;;33.53;19.13;;;;;;;;;;4860312;29;20140;-90
2022/12/23 15:12:13;;;;;;;27.55;16.75;;;;;;;;;;4885731;29;20360;-92
2022/12/23 15:15:09;;;;;;;29.92;19.40;;;;;;;;;;4864379;29;20048;-93
2022/12/23 15:18:02;;;;;;;21.33;13.45;;;;;;;;;;4851460;29;20053;-89
2022/12/23 15:20:32;;;;;;;38.00;23.52;;;;;;;;;;4876740;24;21274;-89
2022/12/23 15:23:16;;;;;;;53.67;31.17;;;;;;;;;;4833410;29;20049;-88
2022/12/23 15:25:45;;;;;;;50.08;29.88;;;;;;;;;;4848927;29;20053;-90
2022/12/23 15:28:20;;;;;;;52.47;30.48;;;;;;;;;;4818021;29;20041;-89
2022/12/23 15:30:50;;;;;;;57.70;25.70;;;;;;;;;;4836862;29;20045;-87
2022/12/23 15:33:28;;;;;;;45.72;27.15;;;;;;;;;;4842623;29;20694;-88
2022/12/23 15:36:21;;;;;;;59.63;31.88;;;;;;;;;;4841809;29;20097;-88